Terminal Aerodrome Forecast
Issued by NWS

Home | Current Version | Previous Version | Text Only | Print | Product List | Glossary On
Versions: 1 2 3 4 5 6 7 8 9 10 11 12 13
406
FTUS44 KEPZ 242347
TAFTCS
TAF
KTCS 242347Z 2500/2524 21010G18KT P6SM FEW150 SCT250
     FM250800 02017G23KT P6SM SCT250
     FM251800 05010G17KT P6SM SCT250
     FM252000 01010KT P6SM FEW250=

USA.gov is the U.S. government's official web portal to all federal, state and local government web resources and services.